sensor_id;sensor_type;location;lat;lon;timestamp;pressure;altitude;pressure_sealevel;temperature;humidity
57594;BME280;43423;46.510;6.686;2023-09-12T00:00:41;96229.09;;;22.70;58.25
57594;BME280;43423;46.510;6.686;2023-09-12T00:03:26;96233.56;;;22.66;58.04
57594;BME280;43423;46.510;6.686;2023-09-12T00:05:57;96233.78;;;22.60;58.06
57594;BME280;43423;46.510;6.686;2023-09-12T00:08:22;96231.16;;;22.70;58.22
57594;BME280;43423;46.510;6.686;2023-09-12T00:11:05;96236.78;;;22.62;58.29
57594;BME280;43423;46.510;6.686;2023-09-12T00:13:35;96231.16;;;22.70;57.96
57594;BME280;43423;46.510;6.686;2023-09-12T00:16:00;96228.19;;;22.60;58.54
57594;BME280;43423;46.510;6.686;2023-09-12T00:18:26;96236.31;;;22.81;58.69
57594;BME280;43423;46.510;6.686;2023-09-12T00:20:52;96233.06;;;22.60;61.00
57594;BME280;43423;46.510;6.686;2023-09-12T00:23:20;96228.94;;;22.61;60.75
57594;BME280;43423;46.510;6.686;2023-09-12T00:25:46;96231.97;;;22.40;62.58
57594;BME280;43423;46.510;6.686;2023-09-12T00:28:11;96226.59;;;22.19;62.98
57594;BME280;43423;46.510;6.686;2023-09-12T00:30:37;96225.47;;;22.07;63.95
57594;BME280;43423;46.510;6.686;2023-09-12T00:33:02;96222.50;;;21.97;65.48
57594;BME280;43423;46.510;6.686;2023-09-12T00:35:28;96221.19;;;22.06;65.27
57594;BME280;43423;46.510;6.686;2023-09-12T00:37:54;96221.19;;;22.06;65.52
57594;BME280;43423;46.510;6.686;2023-09-12T00:40:19;96216.16;;;21.96;65.48
57594;BME280;43423;46.510;6.686;2023-09-12T00:42:45;96215.22;;;21.94;65.79
57594;BME280;43423;46.510;6.686;2023-09-12T00:45:10;96206.81;;;22.01;65.00
57594;BME280;43423;46.510;6.686;2023-09-12T00:47:36;96212.22;;;21.99;64.68
57594;BME280;43423;46.510;6.686;2023-09-12T00:50:04;96207.75;;;22.04;64.25
57594;BME280;43423;46.510;6.686;2023-09-12T00:52:32;96202.69;;;22.02;64.46
57594;BME280;43423;46.510;6.686;2023-09-12T00:54:58;96204.94;;;22.12;63.91
57594;BME280;43423;46.510;6.686;2023-09-12T00:57:24;96204.19;;;22.03;64.23
57594;BME280;43423;46.510;6.686;2023-09-12T00:59:51;96206.63;;;21.99;64.72
57594;BME280;43423;46.510;6.686;2023-09-12T01:02:19;96206.63;;;21.99;63.55
57594;BME280;43423;46.510;6.686;2023-09-12T01:04:46;96201.03;;;21.99;63.40
57594;BME280;43423;46.510;6.686;2023-09-12T01:07:11;96199.53;;;22.06;63.18
57594;BME280;43423;46.510;6.686;2023-09-12T01:09:37;96198.06;;;21.90;63.01
57594;BME280;43423;46.510;6.686;2023-09-12T01:12:03;96205.69;;;22.20;61.53
57594;BME280;43423;46.510;6.686;2023-09-12T01:14:30;96207.94;;;22.21;61.33
57594;BME280;43423;46.510;6.686;2023-09-12T01:16:56;96199.53;;;22.14;60.40
57594;BME280;43423;46.510;6.686;2023-09-12T01:19:23;96201.38;;;22.19;60.25
57594;BME280;43423;46.510;6.686;2023-09-12T01:25:07;96195.78;;;22.19;59.64
57594;BME280;43423;46.510;6.686;2023-09-12T01:27:46;96205.69;;;22.20;58.96
57594;BME280;43423;46.510;6.686;2023-09-12T01:30:12;96202.31;;;22.29;57.88
57594;BME280;43423;46.510;6.686;2023-09-12T01:32:39;96212.38;;;22.40;57.39
57594;BME280;43423;46.510;6.686;2023-09-12T01:35:06;96217.41;;;22.34;57.09
57594;BME280;43423;46.510;6.686;2023-09-12T01:37:31;96205.47;;;22.33;57.50
57594;BME280;43423;46.510;6.686;2023-09-12T01:39:58;96208.44;;;22.43;57.03
57594;BME280;43423;46.510;6.686;2023-09-12T01:42:24;96210.47;;;22.42;57.17
57594;BME280;43423;46.510;6.686;2023-09-12T01:44:54;96217.63;;;22.28;57.65
57594;BME280;43423;46.510;6.686;2023-09-12T01:47:20;96220.16;;;22.56;56.90
57594;BME280;43423;46.510;6.686;2023-09-12T01:49:50;96217.56;;;22.43;58.49
57594;BME280;43423;46.510;6.686;2023-09-12T01:52:16;96225.78;;;22.49;58.64
57594;BME280;43423;46.510;6.686;2023-09-12T01:54:44;96213.53;;;22.29;58.22
57594;BME280;43423;46.510;6.686;2023-09-12T01:57:10;96212.75;;;22.36;57.87
57594;BME280;43423;46.510;6.686;2023-09-12T01:59:36;96205.88;;;22.22;58.56
57594;BME280;43423;46.510;6.686;2023-09-12T02:02:01;96196.91;;;22.16;59.76
57594;BME280;43423;46.510;6.686;2023-09-12T02:04:27;96192.22;;;22.34;58.62
57594;BME280;43423;46.510;6.686;2023-09-12T02:06:53;96180.94;;;22.56;57.60
57594;BME280;43423;46.510;6.686;2023-09-12T02:09:18;96183.00;;;22.48;58.28
57594;BME280;43423;46.510;6.686;2023-09-12T02:11:44;96171.63;;;22.46;58.09
57594;BME280;43423;46.510;6.686;2023-09-12T02:14:09;96171.63;;;22.46;58.08
57594;BME280;43423;46.510;6.686;2023-09-12T02:16:36;96168.25;;;22.48;57.04
57594;BME280;43423;46.510;6.686;2023-09-12T02:19:05;96172.22;;;22.37;57.13
57594;BME280;43423;46.510;6.686;2023-09-12T02:21:31;96172.53;;;22.56;57.03
57594;BME280;43423;46.510;6.686;2023-09-12T02:23:57;96178.91;;;22.49;57.04
57594;BME280;43423;46.510;6.686;2023-09-12T02:26:23;96179.13;;;22.44;57.01
57594;BME280;43423;46.510;6.686;2023-09-12T02:28:48;96178.34;;;22.43;57.35
57594;BME280;43423;46.510;6.686;2023-09-12T02:31:14;96176.16;;;22.34;56.77
57594;BME280;43423;46.510;6.686;2023-09-12T02:33:39;96181.56;;;22.32;57.33
57594;BME280;43423;46.510;6.686;2023-09-12T02:36:06;96178.06;;;22.24;56.99
57594;BME280;43423;46.510;6.686;2023-09-12T02:38:32;96164.00;;;22.39;56.87
57594;BME280;43423;46.510;6.686;2023-09-12T02:40:58;96169.44;;;22.37;57.38
57594;BME280;43423;46.510;6.686;2023-09-12T02:43:23;96170.88;;;22.53;57.07
57594;BME280;43423;46.510;6.686;2023-09-12T02:45:49;96179.50;;;22.40;57.10
57594;BME280;43423;46.510;6.686;2023-09-12T02:48:15;96185.47;;;22.44;57.31
57594;BME280;43423;46.510;6.686;2023-09-12T02:50:40;96177.38;;;22.56;57.72
57594;BME280;43423;46.510;6.686;2023-09-12T02:53:06;96182.31;;;22.80;56.74
57594;BME280;43423;46.510;6.686;2023-09-12T02:55:32;96180.50;;;22.75;56.93
57594;BME280;43423;46.510;6.686;2023-09-12T02:57:58;96177.56;;;22.58;57.61
57594;BME280;43423;46.510;6.686;2023-09-12T03:00:23;96177.13;;;22.77;58.16
57594;BME280;43423;46.510;6.686;2023-09-12T03:02:49;96181.56;;;22.80;58.08
57594;BME280;43423;46.510;6.686;2023-09-12T03:05:14;96175.19;;;22.39;58.37
57594;BME280;43423;46.510;6.686;2023-09-12T03:07:40;96172.06;;;22.27;58.73
57594;BME280;43423;46.510;6.686;2023-09-12T03:10:06;96168.53;;;22.12;59.11
57594;BME280;43423;46.510;6.686;2023-09-12T03:12:32;96166.31;;;22.02;59.66
57594;BME280;43423;46.510;6.686;2023-09-12T03:14:57;96166.88;;;21.86;59.92
57594;BME280;43423;46.510;6.686;2023-09-12T03:17:23;96159.97;;;21.87;59.60
57594;BME280;43423;46.510;6.686;2023-09-12T03:19:48;96167.28;;;21.82;60.14
57594;BME280;43423;46.510;6.686;2023-09-12T03:22:14;96163.75;;;21.74;59.93
57594;BME280;43423;46.510;6.686;2023-09-12T03:24:39;96161.66;;;22.13;59.36
57594;BME280;43423;46.510;6.686;2023-09-12T03:27:05;96158.28;;;21.99;59.03
57594;BME280;43423;46.510;6.686;2023-09-12T03:29:31;96160.91;;;22.05;57.34
57594;BME280;43423;46.510;6.686;2023-09-12T03:31:56;96163.50;;;22.02;57.97
57594;BME280;43423;46.510;6.686;2023-09-12T03:34:22;96165.94;;;22.06;58.34
57594;BME280;43423;46.510;6.686;2023-09-12T03:36:47;96173.78;;;22.08;57.30
57594;BME280;43423;46.510;6.686;2023-09-12T03:39:13;96174.16;;;22.12;59.44
57594;BME280;43423;46.510;6.686;2023-09-12T03:41:39;96165.97;;;21.83;59.45
57594;BME280;43423;46.510;6.686;2023-09-12T03:44:05;96170.97;;;22.15;58.53
57594;BME280;43423;46.510;6.686;2023-09-12T03:46:31;96173.03;;;22.15;58.47
57594;BME280;43423;46.510;6.686;2023-09-12T03:48:56;96171.72;;;22.00;59.19
57594;BME280;43423;46.510;6.686;2023-09-12T03:51:22;96172.28;;;22.07;59.58
57594;BME280;43423;46.510;6.686;2023-09-12T03:53:47;96174.34;;;21.91;60.26
57594;BME280;43423;46.510;6.686;2023-09-12T03:56:16;96177.88;;;22.22;58.17
57594;BME280;43423;46.510;6.686;2023-09-12T03:58:41;96180.50;;;22.05;58.85
57594;BME280;43423;46.510;6.686;2023-09-12T04:01:07;96179.56;;;21.94;58.88
57594;BME280;43423;46.510;6.686;2023-09-12T04:03:32;96181.41;;;22.30;59.38
57594;BME280;43423;46.510;6.686;2023-09-12T04:05:58;96167.81;;;21.96;60.61
57594;BME280;43423;46.510;6.686;2023-09-12T04:08:24;96160.72;;;21.80;61.06
57594;BME280;43423;46.510;6.686;2023-09-12T04:10:50;96160.19;;;21.73;61.01
57594;BME280;43423;46.510;6.686;2023-09-12T04:13:15;96161.69;;;21.67;61.46
57594;BME280;43423;46.510;6.686;2023-09-12T04:15:41;96151.25;;;21.60;61.50
57594;BME280;43423;46.510;6.686;2023-09-12T04:18:06;96160.78;;;21.57;62.27
57594;BME280;43423;46.510;6.686;2023-09-12T04:20:32;96162.78;;;21.64;61.31
57594;BME280;43423;46.510;6.686;2023-09-12T04:23:01;96165.06;;;21.73;60.97
57594;BME280;43423;46.510;6.686;2023-09-12T04:25:28;96163.56;;;21.57;61.60
57594;BME280;43423;46.510;6.686;2023-09-12T04:27:54;96156.09;;;21.52;62.58
57594;BME280;43423;46.510;6.686;2023-09-12T04:30:20;96154.63;;;21.43;62.18
57594;BME280;43423;46.510;6.686;2023-09-12T04:32:45;96156.84;;;21.44;61.92
57594;BME280;43423;46.510;6.686;2023-09-12T04:35:11;96150.69;;;21.54;61.48
57594;BME280;43423;46.510;6.686;2023-09-12T04:37:36;96156.84;;;21.60;61.22
57594;BME280;43423;46.510;6.686;2023-09-12T04:40:03;96151.59;;;21.79;59.04
57594;BME280;43423;46.510;6.686;2023-09-12T04:42:34;96156.59;;;22.11;57.53
57594;BME280;43423;46.510;6.686;2023-09-12T04:45:00;96156.59;;;22.03;56.98
57594;BME280;43423;46.510;6.686;2023-09-12T04:47:25;96149.88;;;22.22;57.19
57594;BME280;43423;46.510;6.686;2023-09-12T04:49:53;96141.47;;;22.22;56.73
57594;BME280;43423;46.510;6.686;2023-09-12T04:52:18;96147.22;;;22.32;56.30
57594;BME280;43423;46.510;6.686;2023-09-12T04:54:44;96149.22;;;22.46;55.44
57594;BME280;43423;46.510;6.686;2023-09-12T04:57:09;96153.53;;;22.40;55.94
57594;BME280;43423;46.510;6.686;2023-09-12T04:59:35;96150.34;;;22.43;55.46
57594;BME280;43423;46.510;6.686;2023-09-12T05:02:00;96158.28;;;21.99;57.41
57594;BME280;43423;46.510;6.686;2023-09-12T05:04:26;96164.63;;;22.07;57.44
57594;BME280;43423;46.510;6.686;2023-09-12T05:06:51;96162.38;;;22.06;58.62
57594;BME280;43423;46.510;6.686;2023-09-12T05:09:17;96156.44;;;21.71;59.37
57594;BME280;43423;46.510;6.686;2023-09-12T05:11:43;96156.84;;;21.67;59.98
57594;BME280;43423;46.510;6.686;2023-09-12T05:14:09;96157.41;;;21.58;60.78
57594;BME280;43423;46.510;6.686;2023-09-12T05:16:35;96157.97;;;21.41;61.20
57594;BME280;43423;46.510;6.686;2023-09-12T05:19:00;96152.91;;;21.32;61.83
57594;BME280;43423;46.510;6.686;2023-09-12T05:21:26;96159.03;;;21.23;62.46
57594;BME280;43423;46.510;6.686;2023-09-12T05:23:52;96156.44;;;21.25;62.47
57594;BME280;43423;46.510;6.686;2023-09-12T05:26:18;96170.22;;;21.23;61.46
57594;BME280;43423;46.510;6.686;2023-09-12T05:28:44;96167.63;;;21.25;61.59
57594;BME280;43423;46.510;6.686;2023-09-12T05:31:09;96185.94;;;21.57;60.81
57594;BME280;43423;46.510;6.686;2023-09-12T05:33:35;96196.38;;;21.79;61.03
57594;BME280;43423;46.510;6.686;2023-09-12T05:36:00;96186.13;;;21.82;60.94
57594;BME280;43423;46.510;6.686;2023-09-12T05:38:27;96190.97;;;21.58;61.21
57594;BME280;43423;46.510;6.686;2023-09-12T05:40:52;96185.38;;;21.51;61.76
57594;BME280;43423;46.510;6.686;2023-09-12T05:43:18;96180.16;;;21.70;61.66
57594;BME280;43423;46.510;6.686;2023-09-12T05:45:44;96188.94;;;21.82;61.81
57594;BME280;43423;46.510;6.686;2023-09-12T05:48:09;96191.91;;;21.84;61.52
57594;BME280;43423;46.510;6.686;2023-09-12T05:50:36;96195.63;;;21.79;62.15
57594;BME280;43423;46.510;6.686;2023-09-12T05:53:03;96194.13;;;21.85;62.56
57594;BME280;43423;46.510;6.686;2023-09-12T05:55:28;96194.13;;;21.85;63.00
57594;BME280;43423;46.510;6.686;2023-09-12T05:57:54;96189.66;;;21.74;63.11
57594;BME280;43423;46.510;6.686;2023-09-12T06:00:20;96184.41;;;21.94;62.44
57594;BME280;43423;46.510;6.686;2023-09-12T06:02:47;96185.72;;;22.00;63.01
57594;BME280;43423;46.510;6.686;2023-09-12T06:05:13;96182.19;;;22.08;63.69
57594;BME280;43423;46.510;6.686;2023-09-12T06:07:39;96184.03;;;22.28;60.47
57594;BME280;43423;46.510;6.686;2023-09-12T06:10:06;96185.72;;;22.00;60.81
57594;BME280;43423;46.510;6.686;2023-09-12T06:12:32;96185.91;;;21.87;62.17
57594;BME280;43423;46.510;6.686;2023-09-12T06:14:58;96185.38;;;21.66;63.77
57594;BME280;43423;46.510;6.686;2023-09-12T06:17:24;96198.06;;;21.74;64.94
57594;BME280;43423;46.510;6.686;2023-09-12T06:19:50;96198.25;;;21.84;64.71
57594;BME280;43423;46.510;6.686;2023-09-12T06:22:17;96202.16;;;22.04;64.61
57594;BME280;43423;46.510;6.686;2023-09-12T06:24:43;96210.00;;;21.98;63.87
57594;BME280;43423;46.510;6.686;2023-09-12T06:27:09;96196.00;;;21.98;64.56
57594;BME280;43423;46.510;6.686;2023-09-12T06:29:37;96203.44;;;21.95;64.23
57594;BME280;43423;46.510;6.686;2023-09-12T06:32:04;96203.44;;;22.18;64.73
57594;BME280;43423;46.510;6.686;2023-09-12T06:34:29;96207.69;;;22.42;62.05
57594;BME280;43423;46.510;6.686;2023-09-12T06:36:55;96195.41;;;22.22;62.74
57594;BME280;43423;46.510;6.686;2023-09-12T06:39:20;96199.72;;;22.08;62.81
57594;BME280;43423;46.510;6.686;2023-09-12T06:41:46;96205.69;;;22.05;65.20
57594;BME280;43423;46.510;6.686;2023-09-12T06:44:11;96203.81;;;22.30;65.93
57594;BME280;43423;46.510;6.686;2023-09-12T06:46:37;96200.59;;;22.34;65.93
57594;BME280;43423;46.510;6.686;2023-09-12T06:49:03;96211.66;;;22.24;66.80
57594;BME280;43423;46.510;6.686;2023-09-12T06:51:29;96205.28;;;22.31;65.24
57594;BME280;43423;46.510;6.686;2023-09-12T06:53:55;96206.00;;;22.39;65.66
57594;BME280;43423;46.510;6.686;2023-09-12T06:56:21;96208.53;;;23.16;63.65
57594;BME280;43423;46.510;6.686;2023-09-12T06:58:49;96213.94;;;23.79;59.24
57594;BME280;43423;46.510;6.686;2023-09-12T07:01:15;96215.25;;;23.45;57.79
57594;BME280;43423;46.510;6.686;2023-09-12T07:03:40;96216.09;;;23.88;58.73
57594;BME280;43423;46.510;6.686;2023-09-12T07:06:06;96229.06;;;24.01;57.49
57594;BME280;43423;46.510;6.686;2023-09-12T07:08:33;96232.31;;;24.14;57.45
57594;BME280;43423;46.510;6.686;2023-09-12T07:10:59;96231.03;;;24.33;56.91
57594;BME280;43423;46.510;6.686;2023-09-12T07:13:31;96225.00;;;24.19;56.72
57594;BME280;43423;46.510;6.686;2023-09-12T07:15:57;96232.56;;;24.68;54.94
57594;BME280;43423;46.510;6.686;2023-09-12T07:18:22;96231.69;;;25.10;53.89
57594;BME280;43423;46.510;6.686;2023-09-12T07:20:58;96235.16;;;25.01;53.72
57594;BME280;43423;46.510;6.686;2023-09-12T07:23:24;96240.97;;;24.68;54.52
57594;BME280;43423;46.510;6.686;2023-09-12T07:25:49;96237.59;;;24.70;54.16
57594;BME280;43423;46.510;6.686;2023-09-12T07:28:15;96241.75;;;25.30;53.72
57594;BME280;43423;46.510;6.686;2023-09-12T07:30:41;96240.72;;;25.63;52.54
57594;BME280;43423;46.510;6.686;2023-09-12T07:33:06;96241.31;;;25.34;52.44
57594;BME280;43423;46.510;6.686;2023-09-12T07:35:32;96246.94;;;24.38;54.18
57594;BME280;43423;46.510;6.686;2023-09-12T07:37:57;96243.53;;;25.09;52.75
57594;BME280;43423;46.510;6.686;2023-09-12T07:40:23;96249.66;;;24.97;51.22
57594;BME280;43423;46.510;6.686;2023-09-12T07:42:48;96251.22;;;25.08;52.08
57594;BME280;43423;46.510;6.686;2023-09-12T07:45:14;96255.09;;;25.67;50.19
57594;BME280;43423;46.510;6.686;2023-09-12T07:47:39;96257.91;;;25.94;49.83
57594;BME280;43423;46.510;6.686;2023-09-12T07:50:06;96257.59;;;25.36;50.43
57594;BME280;43423;46.510;6.686;2023-09-12T07:52:32;96265.03;;;26.41;47.44
57594;BME280;43423;46.510;6.686;2023-09-12T07:55:02;96270.25;;;26.64;47.16
57594;BME280;43423;46.510;6.686;2023-09-12T07:57:28;96270.50;;;25.93;50.05
57594;BME280;43423;46.510;6.686;2023-09-12T07:59:54;96276.25;;;26.31;47.94
57594;BME280;43423;46.510;6.686;2023-09-12T08:02:20;96275.03;;;25.78;49.34
57594;BME280;43423;46.510;6.686;2023-09-12T08:04:46;96276.38;;;24.71;55.06
57594;BME280;43423;46.510;6.686;2023-09-12T08:07:11;96281.50;;;24.65;54.98
57594;BME280;43423;46.510;6.686;2023-09-12T08:09:50;96281.50;;;24.83;55.42
57594;BME280;43423;46.510;6.686;2023-09-12T08:12:16;96285.97;;;24.51;56.74
57594;BME280;43423;46.510;6.686;2023-09-12T08:14:42;96286.53;;;24.24;58.07
57594;BME280;43423;46.510;6.686;2023-09-12T08:17:08;96290.06;;;24.08;59.61
57594;BME280;43423;46.510;6.686;2023-09-12T08:19:34;96285.69;;;24.14;60.02
57594;BME280;43423;46.510;6.686;2023-09-12T08:21:59;96288.22;;;23.78;61.80
57594;BME280;43423;46.510;6.686;2023-09-12T08:24:25;96294.19;;;23.49;63.86
57594;BME280;43423;46.510;6.686;2023-09-12T08:26:51;96292.44;;;23.61;63.55
57594;BME280;43423;46.510;6.686;2023-09-12T08:29:16;96294.03;;;23.80;63.47
57594;BME280;43423;46.510;6.686;2023-09-12T08:31:42;96299.75;;;23.89;63.02
57594;BME280;43423;46.510;6.686;2023-09-12T08:34:07;96294.03;;;23.80;63.02
57594;BME280;43423;46.510;6.686;2023-09-12T08:36:33;96288.47;;;23.72;62.46
57594;BME280;43423;46.510;6.686;2023-09-12T08:39:00;96286.22;;;23.71;61.71
57594;BME280;43423;46.510;6.686;2023-09-12T08:41:26;96293.50;;;23.74;61.78
57594;BME280;43423;46.510;6.686;2023-09-12T08:43:52;96291.75;;;23.86;62.15
57594;BME280;43423;46.510;6.686;2023-09-12T08:46:18;96294.47;;;24.18;61.63
57594;BME280;43423;46.510;6.686;2023-09-12T08:48:45;96290.91;;;24.43;61.78
57594;BME280;43423;46.510;6.686;2023-09-12T08:51:11;96295.59;;;24.15;61.89
57594;BME280;43423;46.510;6.686;2023-09-12T08:53:38;96296.34;;;24.16;62.07
57594;BME280;43423;46.510;6.686;2023-09-12T08:56:04;96293.72;;;24.18;62.08
57594;BME280;43423;46.510;6.686;2023-09-12T08:58:34;96295.72;;;24.00;62.26
57594;BME280;43423;46.510;6.686;2023-09-12T09:01:00;96303.22;;;24.22;59.88
57594;BME280;43423;46.510;6.686;2023-09-12T09:03:27;96301.00;;;24.63;59.88
57594;BME280;43423;46.510;6.686;2023-09-12T09:05:54;96306.31;;;24.59;58.63
57594;BME280;43423;46.510;6.686;2023-09-12T09:08:22;96301.13;;;24.73;56.63
57594;BME280;43423;46.510;6.686;2023-09-12T09:10:58;96295.63;;;24.92;54.95
57594;BME280;43423;46.510;6.686;2023-09-12T09:13:25;96294.59;;;25.05;53.49
57594;BME280;43423;46.510;6.686;2023-09-12T09:21:23;96285.31;;;25.12;54.84
57594;BME280;43423;46.510;6.686;2023-09-12T09:23:53;96284.16;;;25.69;55.64
57594;BME280;43423;46.510;6.686;2023-09-12T09:26:19;96280.88;;;25.90;52.84
57594;BME280;43423;46.510;6.686;2023-09-12T09:28:45;96275.94;;;25.81;51.54
57594;BME280;43423;46.510;6.686;2023-09-12T09:31:12;96273.44;;;25.85;51.06
57594;BME280;43423;46.510;6.686;2023-09-12T09:33:39;96282.88;;;26.07;51.63
57594;BME280;43423;46.510;6.686;2023-09-12T09:36:06;96280.81;;;26.17;50.33
57594;BME280;43423;46.510;6.686;2023-09-12T09:38:36;96268.97;;;26.28;49.81
57594;BME280;43423;46.510;6.686;2023-09-12T09:41:06;96272.72;;;26.31;49.49
57594;BME280;43423;46.510;6.686;2023-09-12T09:43:32;96281.50;;;26.44;48.00
57594;BME280;43423;46.510;6.686;2023-09-12T09:45:57;96285.56;;;26.70;49.08
57594;BME280;43423;46.510;6.686;2023-09-12T09:48:25;96281.50;;;26.54;48.79
57594;BME280;43423;46.510;6.686;2023-09-12T09:51:00;96270.81;;;26.43;47.58
57594;BME280;43423;46.510;6.686;2023-09-12T09:53:27;96271.72;;;25.99;47.33
57594;BME280;43423;46.510;6.686;2023-09-12T09:55:52;96282.69;;;26.61;47.71
57594;BME280;43423;46.510;6.686;2023-09-12T09:58:32;96271.59;;;26.63;46.72
57594;BME280;43423;46.510;6.686;2023-09-12T10:00:58;96277.78;;;26.42;47.72
57594;BME280;43423;46.510;6.686;2023-09-12T10:03:24;96278.84;;;26.47;49.43
57594;BME280;43423;46.510;6.686;2023-09-12T10:05:50;96274.13;;;26.12;49.85
57594;BME280;43423;46.510;6.686;2023-09-12T10:08:17;96271.41;;;26.41;49.68
57594;BME280;43423;46.510;6.686;2023-09-12T10:10:44;96275.72;;;26.42;49.66
57594;BME280;43423;46.510;6.686;2023-09-12T10:13:10;96274.69;;;26.48;50.08
57594;BME280;43423;46.510;6.686;2023-09-12T10:15:36;96274.97;;;26.52;48.69
57594;BME280;43423;46.510;6.686;2023-09-12T10:18:09;96268.31;;;26.57;49.02
57594;BME280;43423;46.510;6.686;2023-09-12T10:20:39;96273.53;;;26.89;47.97
57594;BME280;43423;46.510;6.686;2023-09-12T10:25:37;96270.66;;;27.47;46.44
57594;BME280;43423;46.510;6.686;2023-09-12T10:28:04;96266.13;;;27.13;46.56
57594;BME280;43423;46.510;6.686;2023-09-12T10:30:32;96277.84;;;26.81;43.98
57594;BME280;43423;46.510;6.686;2023-09-12T10:33:00;96273.69;;;27.20;46.46
57594;BME280;43423;46.510;6.686;2023-09-12T10:35:27;96268.72;;;27.40;47.21
57594;BME280;43423;46.510;6.686;2023-09-12T10:37:54;96269.56;;;27.62;42.88
57594;BME280;43423;46.510;6.686;2023-09-12T10:40:22;96269.72;;;27.64;39.98
57594;BME280;43423;46.510;6.686;2023-09-12T10:42:49;96263.63;;;27.68;42.18
57594;BME280;43423;46.510;6.686;2023-09-12T10:45:16;96272.63;;;27.86;42.62
57594;BME280;43423;46.510;6.686;2023-09-12T10:47:42;96276.28;;;27.57;42.07
57594;BME280;43423;46.510;6.686;2023-09-12T10:50:08;96267.41;;;27.41;40.95
57594;BME280;43423;46.510;6.686;2023-09-12T10:52:35;96264.38;;;27.68;41.34
57594;BME280;43423;46.510;6.686;2023-09-12T10:55:05;96264.38;;;27.68;41.69
57594;BME280;43423;46.510;6.686;2023-09-12T10:57:32;96262.00;;;28.05;41.44
57594;BME280;43423;46.510;6.686;2023-09-12T11:02:40;96267.41;;;28.23;36.97
57594;BME280;43423;46.510;6.686;2023-09-12T11:05:07;96267.00;;;28.17;38.49
57594;BME280;43423;46.510;6.686;2023-09-12T11:07:56;96272.16;;;28.73;39.03
57594;BME280;43423;46.510;6.686;2023-09-12T11:10:23;96274.88;;;28.71;38.51
57594;BME280;43423;46.510;6.686;2023-09-12T11:12:54;96274.75;;;28.69;39.02
57594;BME280;43423;46.510;6.686;2023-09-12T11:15:22;96266.06;;;28.55;38.05
57594;BME280;43423;46.510;6.686;2023-09-12T11:17:49;96275.13;;;28.75;39.20
57594;BME280;43423;46.510;6.686;2023-09-12T11:20:24;96260.19;;;28.62;39.61
57594;BME280;43423;46.510;6.686;2023-09-12T11:22:50;96271.22;;;28.58;40.26
57594;BME280;43423;46.510;6.686;2023-09-12T11:25:20;96267.00;;;28.48;39.07
57594;BME280;43423;46.510;6.686;2023-09-12T11:30:26;96262.19;;;28.50;38.34
57594;BME280;43423;46.510;6.686;2023-09-12T11:32:53;96265.78;;;28.29;38.54
57594;BME280;43423;46.510;6.686;2023-09-12T11:35:27;96262.00;;;28.58;37.46
57594;BME280;43423;46.510;6.686;2023-09-12T11:37:57;96262.22;;;28.72;38.44
57594;BME280;43423;46.510;6.686;2023-09-12T11:40:42;96266.06;;;28.76;37.15
57594;BME280;43423;46.510;6.686;2023-09-12T11:43:25;96261.47;;;28.50;38.40
57594;BME280;43423;46.510;6.686;2023-09-12T11:45:51;96260.84;;;28.30;38.02
57594;BME280;43423;46.510;6.686;2023-09-12T11:48:19;96258.03;;;28.30;36.48
57594;BME280;43423;46.510;6.686;2023-09-12T11:50:55;96251.81;;;28.22;36.20
57594;BME280;43423;46.510;6.686;2023-09-12T11:53:26;96252.06;;;28.26;36.58
57594;BME280;43423;46.510;6.686;2023-09-12T11:55:57;96244.56;;;28.09;40.21
57594;BME280;43423;46.510;6.686;2023-09-12T11:58:24;96250.84;;;28.07;37.69
57594;BME280;43423;46.510;6.686;2023-09-12T12:00:52;96246.72;;;27.99;39.34
57594;BME280;43423;46.510;6.686;2023-09-12T12:03:20;96240.78;;;27.95;37.49
57594;BME280;43423;46.510;6.686;2023-09-12T12:05:47;96246.94;;;28.13;39.41
57594;BME280;43423;46.510;6.686;2023-09-12T12:08:14;96241.69;;;28.19;38.60
57594;BME280;43423;46.510;6.686;2023-09-12T12:10:40;96232.13;;;28.24;37.13
57594;BME280;43423;46.510;6.686;2023-09-12T12:13:11;96238.59;;;28.46;37.81
57594;BME280;43423;46.510;6.686;2023-09-12T12:15:36;96231.78;;;28.39;37.73
57594;BME280;43423;46.510;6.686;2023-09-12T12:18:02;96227.13;;;28.65;37.80
57594;BME280;43423;46.510;6.686;2023-09-12T12:20:28;96232.56;;;28.51;36.13
57594;BME280;43423;46.510;6.686;2023-09-12T12:22:56;96228.94;;;28.60;35.96
57594;BME280;43423;46.510;6.686;2023-09-12T12:25:21;96219.44;;;28.77;37.92
57594;BME280;43423;46.510;6.686;2023-09-12T12:27:47;96224.47;;;28.79;37.61
57594;BME280;43423;46.510;6.686;2023-09-12T12:30:13;96213.19;;;28.57;37.33
57594;BME280;43423;46.510;6.686;2023-09-12T12:32:45;96214.19;;;28.62;33.81
57594;BME280;43423;46.510;6.686;2023-09-12T12:35:21;96223.13;;;28.80;37.66
57594;BME280;43423;46.510;6.686;2023-09-12T12:37:54;96213.41;;;28.83;34.08
57594;BME280;43423;46.510;6.686;2023-09-12T12:40:20;96208.44;;;28.72;34.36
57594;BME280;43423;46.510;6.686;2023-09-12T12:42:47;96206.31;;;28.60;34.74
57594;BME280;43423;46.510;6.686;2023-09-12T12:45:18;96206.16;;;28.58;34.78
57594;BME280;43423;46.510;6.686;2023-09-12T12:47:45;96200.13;;;28.31;35.89
57594;BME280;43423;46.510;6.686;2023-09-12T12:50:12;96203.81;;;28.33;36.13
57594;BME280;43423;46.510;6.686;2023-09-12T12:52:39;96200.66;;;28.60;35.36
57594;BME280;43423;46.510;6.686;2023-09-12T12:55:11;96205.09;;;28.63;35.17
57594;BME280;43423;46.510;6.686;2023-09-12T12:57:38;96195.88;;;28.63;35.83
57594;BME280;43423;46.510;6.686;2023-09-12T13:00:09;96197.47;;;28.66;38.20
57594;BME280;43423;46.510;6.686;2023-09-12T13:02:40;96194.69;;;28.78;36.46
57594;BME280;43423;46.510;6.686;2023-09-12T13:05:19;96190.63;;;28.69;37.68
57594;BME280;43423;46.510;6.686;2023-09-12T13:07:45;96191.03;;;28.87;35.78
57594;BME280;43423;46.510;6.686;2023-09-12T13:10:11;96195.66;;;28.92;34.78
57594;BME280;43423;46.510;6.686;2023-09-12T13:12:37;96194.91;;;28.91;34.52
57594;BME280;43423;46.510;6.686;2023-09-12T13:15:05;96189.91;;;28.47;37.89